Time;durP1;ratioP1;P1;durP2;ratioP2;P2;SDS_P1;SDS_P2;PMS_P1;PMS_P2;Temp;Humidity;BMP_temperature;BMP_pressure;BME280_temperature;BME280_humidity;BME280_pressure;Samples;Min_cycle;Max_cycle;Signal;HPM_P1;HPM_P2
2022/01/07 00:01:37;;;;;;;12.17;4.30;;;-1.00;99.90;;;;;;5031907;28;20512;-77
2022/01/07 00:04:03;;;;;;;8.15;4.32;;;-1.00;99.90;;;;;;5031293;28;20227;-77
2022/01/07 00:06:29;;;;;;;15.70;4.60;;;-1.10;99.90;;;;;;5014415;28;20288;-77
2022/01/07 00:08:54;;;;;;;10.07;4.80;;;-1.20;99.90;;;;;;5048945;28;20418;-77
2022/01/07 00:11:20;;;;;;;8.23;4.23;;;-1.20;99.90;;;;;;5049406;28;20278;-77
2022/01/07 00:13:46;;;;;;;6.63;3.80;;;-1.30;99.90;;;;;;5049061;28;20281;-77
2022/01/07 00:16:12;;;;;;;14.23;4.77;;;-1.30;99.90;;;;;;5048890;28;20263;-77
2022/01/07 00:18:41;;;;;;;6.60;3.67;;;-1.40;99.90;;;;;;5048302;28;20172;-77
2022/01/07 00:21:07;;;;;;;6.28;3.60;;;-1.40;99.90;;;;;;5048384;28;20263;-76
2022/01/07 00:23:33;;;;;;;5.53;3.58;;;-1.40;99.90;;;;;;5030516;28;20215;-77
2022/01/07 00:25:59;;;;;;;8.27;3.03;;;-1.40;99.90;;;;;;5048729;28;20180;-77
2022/01/07 00:28:24;;;;;;;11.03;3.73;;;-1.50;99.90;;;;;;5034422;28;20188;-77
2022/01/07 00:30:50;;;;;;;5.90;2.63;;;-1.50;99.90;;;;;;5052464;28;20175;-77
2022/01/07 00:33:16;;;;;;;5.33;2.80;;;-1.60;99.90;;;;;;5017931;28;20226;-75
2022/01/07 00:35:42;;;;;;;5.50;2.53;;;-1.60;99.90;;;;;;5052214;28;20191;-74
2022/01/07 00:38:07;;;;;;;5.03;2.80;;;-1.60;99.90;;;;;;5034717;28;20180;-76
2022/01/07 00:40:33;;;;;;;4.50;2.80;;;-1.50;99.90;;;;;;5052540;28;21338;-77
2022/01/07 00:42:59;;;;;;;11.10;2.47;;;-1.50;99.90;;;;;;5034319;28;20302;-77
2022/01/07 00:45:25;;;;;;;11.80;2.63;;;-1.40;99.90;;;;;;5034400;28;20307;-76
2022/01/07 00:47:52;;;;;;;5.40;2.60;;;-1.40;99.90;;;;;;5052355;28;20283;-76
2022/01/07 00:50:21;;;;;;;9.10;2.67;;;-1.40;99.90;;;;;;5052540;28;20844;-76
2022/01/07 00:52:47;;;;;;;5.28;2.70;;;-1.30;99.90;;;;;;5033589;28;20229;-77
2022/01/07 00:55:14;;;;;;;5.70;2.50;;;-1.30;99.90;;;;;;5051636;28;20254;-77
2022/01/07 00:57:40;;;;;;;14.23;2.65;;;-1.30;99.90;;;;;;5051629;28;20192;-76
2022/01/07 01:00:09;;;;;;;6.90;2.40;;;-1.30;99.90;;;;;;5053036;28;20265;-77
2022/01/07 01:02:35;;;;;;;14.88;2.65;;;-1.40;99.90;;;;;;5034429;28;20426;-76
2022/01/07 01:05:02;;;;;;;9.37;3.20;;;-1.40;99.90;;;;;;5052387;28;20529;-77
2022/01/07 01:07:29;;;;;;;4.00;2.20;;;-1.40;99.90;;;;;;5053711;28;20429;-76
2022/01/07 01:09:54;;;;;;;5.68;2.17;;;-1.30;99.90;;;;;;5052391;28;20195;-76
2022/01/07 01:12:20;;;;;;;2.50;2.00;;;-1.40;99.90;;;;;;5034969;28;20216;-76
2022/01/07 01:14:46;;;;;;;5.00;2.10;;;-1.40;99.90;;;;;;5052890;28;20198;-76
2022/01/07 01:17:12;;;;;;;6.00;2.47;;;-1.30;99.90;;;;;;5051797;28;20414;-76
2022/01/07 01:19:38;;;;;;;12.03;3.30;;;-1.30;99.90;;;;;;5034844;28;20246;-77
2022/01/07 01:22:04;;;;;;;5.28;3.22;;;-1.30;99.90;;;;;;5033937;28;20188;-76
2022/01/07 01:24:30;;;;;;;5.10;2.53;;;-1.30;99.90;;;;;;5051195;28;20246;-76
2022/01/07 01:26:56;;;;;;;13.05;3.85;;;-1.40;99.90;;;;;;5051004;28;20186;-77
2022/01/07 01:29:22;;;;;;;21.10;5.80;;;-1.50;99.90;;;;;;5050990;28;20924;-76
2022/01/07 01:31:49;;;;;;;7.40;3.70;;;-1.40;99.90;;;;;;5050742;28;20201;-76
2022/01/07 01:34:15;;;;;;;7.13;3.72;;;-1.30;99.90;;;;;;5050432;28;20215;-76
2022/01/07 01:36:42;;;;;;;7.97;2.83;;;-1.40;99.90;;;;;;5050686;28;20176;-77
2022/01/07 01:39:09;;;;;;;10.02;3.10;;;-1.40;99.90;;;;;;5032426;28;20242;-77
2022/01/07 01:41:35;;;;;;;4.60;3.17;;;-1.40;99.90;;;;;;5032416;28;20409;-77
2022/01/07 01:44:00;;;;;;;7.40;3.15;;;-1.40;99.90;;;;;;5032161;28;20212;-77
2022/01/07 01:46:26;;;;;;;4.20;2.90;;;-1.50;99.90;;;;;;5050364;28;20201;-76
2022/01/07 01:48:52;;;;;;;9.53;3.00;;;-1.40;99.90;;;;;;5050394;28;20187;-76
2022/01/07 01:51:17;;;;;;;5.80;3.10;;;-1.40;99.90;;;;;;5050209;28;20511;-77
2022/01/07 01:53:44;;;;;;;8.10;2.70;;;-1.50;99.90;;;;;;5050258;28;20195;-77
2022/01/07 01:56:09;;;;;;;11.75;2.80;;;-1.60;99.90;;;;;;5032142;28;20636;-76
2022/01/07 01:58:35;;;;;;;8.30;2.97;;;-1.60;99.90;;;;;;5032411;28;20199;-76
2022/01/07 02:01:01;;;;;;;5.67;2.80;;;-1.60;99.90;;;;;;5016650;28;20517;-77
2022/01/07 02:03:27;;;;;;;4.03;2.47;;;-1.60;99.90;;;;;;5049904;28;20200;-76
2022/01/07 02:05:54;;;;;;;11.13;2.93;;;-1.50;99.90;;;;;;5033596;28;20184;-76
2022/01/07 02:08:19;;;;;;;6.68;2.70;;;-1.50;99.90;;;;;;5050234;28;20182;-77
2022/01/07 02:10:45;;;;;;;4.27;2.30;;;-1.60;99.90;;;;;;5016132;28;20184;-78
2022/01/07 02:13:11;;;;;;;3.97;2.30;;;-1.70;99.90;;;;;;5033383;28;20697;-76
2022/01/07 02:15:37;;;;;;;5.77;2.40;;;-1.70;99.90;;;;;;5032208;28;20204;-77
2022/01/07 02:18:04;;;;;;;4.63;2.67;;;-1.70;99.90;;;;;;5031861;28;20314;-77
2022/01/07 02:20:30;;;;;;;3.95;2.30;;;-1.60;99.90;;;;;;5050015;28;20318;-76
2022/01/07 02:22:57;;;;;;;5.83;2.43;;;-1.70;99.90;;;;;;5049601;28;20234;-76
2022/01/07 02:25:24;;;;;;;5.22;3.00;;;-1.70;99.90;;;;;;5049899;28;20501;-76
2022/01/07 02:27:50;;;;;;;4.30;2.75;;;-1.60;99.90;;;;;;5031539;28;20227;-77
2022/01/07 02:30:22;;;;;;;6.47;2.45;;;-1.40;99.90;;;;;;5031627;28;20184;-79
2022/01/07 02:32:49;;;;;;;9.50;3.40;;;-1.20;99.90;;;;;;5031710;28;20215;-78
2022/01/07 02:35:16;;;;;;;7.35;2.60;;;-1.10;99.90;;;;;;5049518;28;20278;-77
2022/01/07 02:37:41;;;;;;;2.97;1.92;;;-1.10;99.90;;;;;;5031421;28;20253;-76
2022/01/07 02:40:08;;;;;;;2.63;2.30;;;-1.00;99.90;;;;;;5049390;28;20176;-75
2022/01/07 02:42:35;;;;;;;4.80;2.65;;;-0.90;99.90;;;;;;5049140;28;20188;-76
2022/01/07 02:45:01;;;;;;;4.82;2.33;;;-0.80;99.90;;;;;;5031093;28;20216;-77
2022/01/07 02:47:31;;;;;;;7.20;3.20;;;-0.70;99.90;;;;;;5049197;28;20652;-76
2022/01/07 02:50:04;;;;;;;6.45;2.75;;;-0.70;99.90;;;;;;5030508;28;20430;-77
2022/01/07 02:52:30;;;;;;;3.60;2.00;;;-0.80;99.90;;;;;;5015466;28;20250;-77
2022/01/07 02:54:55;;;;;;;5.13;2.40;;;-0.80;99.90;;;;;;5049433;28;20200;-78
2022/01/07 02:57:21;;;;;;;4.27;2.47;;;-0.90;99.90;;;;;;5051526;28;20176;-77
2022/01/07 02:59:46;;;;;;;4.17;2.70;;;-0.90;99.90;;;;;;5032659;28;20550;-78
2022/01/07 03:02:12;;;;;;;5.50;3.10;;;-0.90;99.90;;;;;;5050324;28;20195;-78
2022/01/07 03:04:38;;;;;;;6.17;3.30;;;-0.90;99.90;;;;;;5031685;28;20210;-78
2022/01/07 03:07:04;;;;;;;4.90;3.13;;;-0.90;99.90;;;;;;5032041;28;20192;-78
2022/01/07 03:09:29;;;;;;;4.40;2.80;;;-1.00;99.90;;;;;;5032355;28;20280;-78
2022/01/07 03:11:55;;;;;;;15.17;5.00;;;-0.90;99.90;;;;;;5050160;28;20267;-79
2022/01/07 03:14:21;;;;;;;4.63;3.17;;;-1.00;99.90;;;;;;5031821;28;20196;-79
2022/01/07 03:16:46;;;;;;;5.47;3.50;;;-0.90;99.90;;;;;;5031574;28;20188;-78
2022/01/07 03:19:12;;;;;;;5.37;2.47;;;-0.90;99.90;;;;;;5031733;28;20770;-78
2022/01/07 03:21:38;;;;;;;4.07;3.27;;;-0.90;99.90;;;;;;5031977;28;20625;-79
2022/01/07 03:24:04;;;;;;;5.70;3.17;;;-0.90;99.90;;;;;;5031959;28;20208;-79
2022/01/07 03:26:29;;;;;;;5.23;3.10;;;-0.90;99.90;;;;;;5049821;28;20191;-79
2022/01/07 03:28:55;;;;;;;3.20;2.90;;;-0.90;99.90;;;;;;5032065;28;20426;-79
2022/01/07 03:31:20;;;;;;;4.40;3.07;;;-1.00;99.90;;;;;;5032660;28;20277;-80
2022/01/07 03:33:46;;;;;;;4.83;3.27;;;-1.00;99.90;;;;;;5050844;28;20220;-79
2022/01/07 03:36:12;;;;;;;6.57;2.43;;;-1.00;99.90;;;;;;5016292;28;20271;-80
2022/01/07 03:38:37;;;;;;;4.57;3.27;;;-1.00;99.90;;;;;;5016637;28;20192;-78
2022/01/07 03:41:03;;;;;;;5.20;3.90;;;-1.10;99.90;;;;;;5032140;28;20191;-78
2022/01/07 03:43:29;;;;;;;3.47;3.10;;;-1.20;99.90;;;;;;5049524;28;20191;-78
2022/01/07 03:45:54;;;;;;;3.30;3.00;;;-1.20;99.90;;;;;;5049384;28;20505;-77
2022/01/07 03:48:20;;;;;;;13.73;3.70;;;-1.30;99.90;;;;;;5048567;28;20180;-78
2022/01/07 03:50:46;;;;;;;4.10;3.20;;;-1.30;99.90;;;;;;5048452;28;20653;-79
2022/01/07 03:53:12;;;;;;;4.33;3.83;;;-1.30;99.90;;;;;;5013560;28;20708;-77
2022/01/07 03:55:37;;;;;;;5.50;3.33;;;-1.40;99.90;;;;;;5030026;28;20201;-75
2022/01/07 03:58:03;;;;;;;4.30;3.17;;;-1.40;99.90;;;;;;5030230;28;20487;-77
2022/01/07 04:00:34;;;;;;;8.60;4.68;;;-1.60;99.90;;;;;;5048117;28;20172;-76
2022/01/07 04:03:06;;;;;;;6.53;3.53;;;-1.70;99.90;;;;;;5033729;28;20224;-77
2022/01/07 04:05:32;;;;;;;5.05;3.10;;;-1.80;99.90;;;;;;5052397;28;20549;-77
2022/01/07 04:07:58;;;;;;;8.00;4.30;;;-1.80;99.90;;;;;;5052306;28;20186;-77
2022/01/07 04:10:24;;;;;;;6.27;4.00;;;-1.80;99.90;;;;;;5034236;28;20414;-77
2022/01/07 04:12:50;;;;;;;7.37;4.30;;;-1.80;99.90;;;;;;5051964;28;20478;-78
2022/01/07 04:15:16;;;;;;;6.55;4.22;;;-1.90;99.90;;;;;;5034153;28;20537;-77
2022/01/07 04:17:45;;;;;;;6.15;4.00;;;-1.90;99.90;;;;;;5052075;28;20183;-77
2022/01/07 04:20:13;;;;;;;4.93;3.70;;;-2.00;99.90;;;;;;5051870;28;20660;-77
2022/01/07 04:22:39;;;;;;;3.45;3.08;;;-2.10;99.90;;;;;;5052006;28;20684;-78
2022/01/07 04:25:08;;;;;;;4.53;3.80;;;-2.10;99.90;;;;;;5033819;28;20219;-77
2022/01/07 04:27:35;;;;;;;7.43;3.95;;;-2.10;99.90;;;;;;5033962;28;20188;-76
2022/01/07 04:30:01;;;;;;;6.30;4.05;;;-2.30;99.90;;;;;;5051983;28;20183;-77
2022/01/07 04:32:26;;;;;;;7.70;5.07;;;-2.30;99.90;;;;;;5051829;28;20218;-78
2022/01/07 04:34:52;;;;;;;5.20;4.27;;;-2.40;99.90;;;;;;5033608;28;20497;-77
2022/01/07 04:37:18;;;;;;;6.35;4.47;;;-2.40;99.90;;;;;;5033764;28;20180;-77
2022/01/07 04:39:44;;;;;;;6.93;4.80;;;-2.40;99.90;;;;;;5033784;28;20265;-78
2022/01/07 04:42:10;;;;;;;5.30;4.13;;;-2.30;99.90;;;;;;5051670;28;20516;-77
2022/01/07 04:44:40;;;;;;;7.53;4.40;;;-2.30;99.90;;;;;;5033359;28;20285;-77
2022/01/07 04:47:08;;;;;;;9.45;5.30;;;-2.30;99.90;;;;;;5002402;28;20683;-76
2022/01/07 04:49:35;;;;;;;8.05;4.68;;;-2.30;99.90;;;;;;5017506;28;20231;-78
2022/01/07 04:52:02;;;;;;;9.38;5.53;;;-2.30;99.90;;;;;;5051392;28;20980;-78
2022/01/07 04:54:27;;;;;;;7.25;4.97;;;-2.30;99.90;;;;;;5052666;28;20258;-76
2022/01/07 04:56:53;;;;;;;9.33;5.00;;;-2.20;99.90;;;;;;5051428;28;20573;-78
2022/01/07 04:59:19;;;;;;;10.90;5.90;;;-2.30;99.90;;;;;;5017188;28;20208;-78
2022/01/07 05:01:45;;;;;;;8.77;5.33;;;-2.30;99.90;;;;;;5051434;28;20191;-77
2022/01/07 05:04:10;;;;;;;10.33;5.10;;;-2.20;99.90;;;;;;5051811;28;20533;-78
2022/01/07 05:06:45;;;;;;;10.13;5.97;;;-2.30;99.90;;;;;;5033852;28;20184;-78
2022/01/07 05:09:18;;;;;;;8.32;4.82;;;-2.20;99.90;;;;;;5036026;28;20206;-79
2022/01/07 05:11:48;;;;;;;8.63;5.30;;;-2.20;99.90;;;;;;5034913;28;20703;-78
2022/01/07 05:14:15;;;;;;;7.20;5.45;;;-2.20;99.90;;;;;;5053349;28;20228;-78
2022/01/07 05:16:41;;;;;;;9.07;5.60;;;-2.10;99.90;;;;;;5053970;28;20173;-79
2022/01/07 05:19:07;;;;;;;6.88;5.22;;;-2.20;99.90;;;;;;5054702;28;20176;-80
2022/01/07 05:21:33;;;;;;;6.87;5.47;;;-2.10;99.90;;;;;;5036805;28;20714;-77
2022/01/07 05:23:59;;;;;;;11.07;6.10;;;-2.00;99.90;;;;;;5053476;28;20227;-79
2022/01/07 05:26:24;;;;;;;13.13;6.60;;;-2.00;99.90;;;;;;5052746;28;21000;-79
2022/01/07 05:28:53;;;;;;;8.03;6.40;;;-1.80;99.90;;;;;;5052529;28;20479;-78
2022/01/07 05:31:22;;;;;;;9.23;6.18;;;-1.90;99.90;;;;;;5053076;28;20179;-78
2022/01/07 05:33:48;;;;;;;10.52;6.55;;;-1.80;99.90;;;;;;5034525;28;20260;-78
2022/01/07 05:36:13;;;;;;;9.60;5.80;;;-1.80;99.90;;;;;;5051955;28;20175;-80
2022/01/07 05:38:39;;;;;;;9.17;6.03;;;-1.70;99.90;;;;;;5051663;28;20609;-78
2022/01/07 05:41:05;;;;;;;10.27;5.57;;;-1.70;99.90;;;;;;5051596;28;20183;-78
2022/01/07 05:43:30;;;;;;;10.13;6.03;;;-1.60;99.90;;;;;;5033437;28;20214;-78
2022/01/07 05:45:57;;;;;;;11.57;7.33;;;-1.50;99.90;;;;;;5016642;28;20191;-79
2022/01/07 05:48:23;;;;;;;6.88;5.30;;;-1.50;99.90;;;;;;5051716;28;20180;-75
2022/01/07 05:50:49;;;;;;;10.17;6.10;;;-1.60;99.90;;;;;;5032612;28;20252;-77
2022/01/07 05:53:15;;;;;;;9.95;6.20;;;-1.60;99.90;;;;;;5032969;28;20226;-74
2022/01/07 05:55:41;;;;;;;9.45;5.63;;;-1.70;99.90;;;;;;5052472;28;20684;-78
2022/01/07 05:58:07;;;;;;;9.97;6.00;;;-1.70;99.90;;;;;;5034893;28;20278;-79
2022/01/07 06:00:32;;;;;;;8.43;5.50;;;-1.70;99.90;;;;;;5051503;28;20959;-79
2022/01/07 06:02:58;;;;;;;11.80;6.40;;;-1.70;99.90;;;;;;5033668;28;20215;-78
2022/01/07 06:05:24;;;;;;;9.07;6.50;;;-1.70;99.90;;;;;;5050442;28;20353;-77
2022/01/07 06:07:49;;;;;;;6.30;4.27;;;-1.70;99.90;;;;;;5015540;28;20192;-75
2022/01/07 06:10:15;;;;;;;8.47;5.53;;;-1.70;99.90;;;;;;5032120;28;20426;-76
2022/01/07 06:12:41;;;;;;;7.73;5.80;;;-1.70;99.90;;;;;;5049887;28;20715;-76
2022/01/07 06:15:08;;;;;;;9.03;6.30;;;-1.60;99.90;;;;;;5032026;28;20433;-76
2022/01/07 06:17:35;;;;;;;9.82;6.93;;;-1.60;99.90;;;;;;5032096;28;20682;-76
2022/01/07 06:20:00;;;;;;;7.60;5.93;;;-1.60;99.90;;;;;;5049557;28;20176;-74
2022/01/07 06:22:26;;;;;;;18.53;6.27;;;-1.60;99.90;;;;;;5049564;28;20268;-74
2022/01/07 06:24:52;;;;;;;9.87;6.10;;;-1.50;99.90;;;;;;5030806;28;20215;-74
2022/01/07 06:27:17;;;;;;;6.70;5.23;;;-1.50;99.90;;;;;;5031755;28;20186;-73
2022/01/07 06:29:43;;;;;;;9.63;5.83;;;-1.40;99.90;;;;;;5031590;28;20313;-74
2022/01/07 06:32:09;;;;;;;8.13;4.30;;;-1.40;99.90;;;;;;5049452;28;20739;-72
2022/01/07 06:34:34;;;;;;;9.23;5.50;;;-1.30;99.90;;;;;;5049359;28;20242;-76
2022/01/07 06:37:01;;;;;;;14.87;6.63;;;-1.30;99.90;;;;;;5049363;28;20183;-75
2022/01/07 06:39:29;;;;;;;7.53;5.40;;;-1.30;99.90;;;;;;5049951;28;20191;-75
2022/01/07 06:41:55;;;;;;;6.97;4.53;;;-1.30;99.90;;;;;;5049539;28;20267;-74
2022/01/07 06:44:21;;;;;;;8.40;4.68;;;-1.20;99.90;;;;;;5049336;28;20203;-76
2022/01/07 06:46:47;;;;;;;7.53;4.90;;;-1.20;99.90;;;;;;5031934;28;20197;-76
2022/01/07 06:49:13;;;;;;;8.60;4.90;;;-1.20;99.90;;;;;;5014572;28;20434;-75
2022/01/07 06:51:40;;;;;;;7.47;4.50;;;-1.20;99.90;;;;;;5048974;28;20281;-75
2022/01/07 06:54:07;;;;;;;6.68;4.55;;;-1.10;99.90;;;;;;5049359;28;20200;-75
2022/01/07 06:56:34;;;;;;;7.28;4.35;;;-1.10;99.90;;;;;;5031229;28;20206;-76
2022/01/07 06:58:59;;;;;;;7.03;4.88;;;-1.00;99.90;;;;;;5030965;28;20180;-75
2022/01/07 07:01:27;;;;;;;9.03;5.10;;;-1.00;99.90;;;;;;5048934;28;20176;-76
2022/01/07 07:03:53;;;;;;;6.05;4.70;;;-1.00;99.90;;;;;;5048532;28;20191;-76
2022/01/07 07:06:19;;;;;;;4.80;4.30;;;-0.90;99.90;;;;;;5048663;28;20181;-77
2022/01/07 07:08:44;;;;;;;9.00;4.63;;;-0.90;99.90;;;;;;5030793;28;20746;-76
2022/01/07 07:11:10;;;;;;;6.53;4.63;;;-0.90;99.90;;;;;;5014905;28;20218;-75
2022/01/07 07:13:35;;;;;;;3.53;3.23;;;-0.90;99.90;;;;;;5049375;28;20532;-76
2022/01/07 07:16:01;;;;;;;11.93;5.33;;;-0.80;99.90;;;;;;5030517;28;20192;-76
2022/01/07 07:18:27;;;;;;;6.53;4.53;;;-0.80;99.90;;;;;;5048652;28;20180;-76
2022/01/07 07:20:52;;;;;;;4.97;4.47;;;-0.80;99.90;;;;;;5030800;28;20191;-77
2022/01/07 07:23:18;;;;;;;7.13;4.80;;;-0.80;99.90;;;;;;5048499;28;20203;-76
2022/01/07 07:25:44;;;;;;;5.47;4.57;;;-0.70;99.90;;;;;;5030458;28;20191;-76
2022/01/07 07:28:10;;;;;;;6.30;3.83;;;-0.80;99.90;;;;;;5030572;28;20198;-77
2022/01/07 07:30:39;;;;;;;8.47;5.40;;;-0.70;99.90;;;;;;5048322;28;20189;-76
2022/01/07 07:38:42;;;;;;;3.83;3.42;;;-0.80;99.90;;;;;;5048318;28;20564;-76
2022/01/07 07:41:08;;;;;;;7.40;5.60;;;-0.80;99.90;;;;;;5048311;28;20180;-76
2022/01/07 07:43:34;;;;;;;6.20;4.72;;;-0.80;99.90;;;;;;5048106;28;20230;-77
2022/01/07 07:46:01;;;;;;;5.28;4.72;;;-0.80;99.90;;;;;;5048206;28;20180;-76
2022/01/07 07:48:27;;;;;;;6.18;5.00;;;-0.70;99.90;;;;;;5048220;28;20659;-77
2022/01/07 07:50:53;;;;;;;6.57;4.30;;;-0.70;99.90;;;;;;5048239;28;20198;-76
2022/01/07 07:53:18;;;;;;;7.17;4.87;;;-0.70;99.90;;;;;;5048078;28;20215;-76
2022/01/07 07:55:53;;;;;;;7.50;5.87;;;-0.60;99.90;;;;;;5013744;28;20187;-76
2022/01/07 07:58:22;;;;;;;8.32;6.05;;;-0.60;99.90;;;;;;5030046;28;20495;-76
2022/01/07 08:00:48;;;;;;;10.95;5.50;;;-0.50;99.90;;;;;;5029471;28;20182;-76
2022/01/07 08:03:15;;;;;;;9.48;6.07;;;-0.40;99.90;;;;;;5029356;28;20204;-76
2022/01/07 08:05:40;;;;;;;6.85;5.40;;;-0.40;99.90;;;;;;5047618;28;20190;-76
2022/01/07 08:08:06;;;;;;;9.80;6.40;;;-0.30;99.90;;;;;;5047698;28;20192;-77
2022/01/07 08:10:32;;;;;;;14.07;6.80;;;-0.10;99.90;;;;;;5047669;28;20200;-76
2022/01/07 08:18:20;;;;;;;8.00;5.30;;;1.00;99.90;;;;;;5047369;28;20187;-76
2022/01/07 08:20:46;;;;;;;7.47;5.70;;;1.80;99.90;;;;;;5047150;28;20183;-76
2022/01/07 08:23:12;;;;;;;5.75;4.97;;;2.60;99.90;;;;;;5047035;28;20207;-76
2022/01/07 08:25:38;;;;;;;8.32;5.60;;;3.10;99.90;;;;;;5047170;28;20615;-75
2022/01/07 08:28:05;;;;;;;12.07;6.10;;;2.60;99.90;;;;;;5047260;28;20259;-76
2022/01/07 08:36:01;;;;;;;8.40;5.45;;;1.80;99.90;;;;;;5046672;28;20207;-75
2022/01/07 08:38:27;;;;;;;7.27;5.37;;;1.30;99.90;;;;;;5046460;28;20193;-75
2022/01/07 08:40:52;;;;;;;6.83;4.57;;;1.20;99.90;;;;;;5028531;28;20193;-75
2022/01/07 08:43:18;;;;;;;7.90;5.13;;;0.90;99.90;;;;;;5046933;28;20205;-75
2022/01/07 08:45:44;;;;;;;7.57;5.23;;;1.00;99.90;;;;;;5012456;28;20668;-76
2022/01/07 08:48:09;;;;;;;6.20;4.63;;;1.10;99.90;;;;;;5048702;28;20186;-75
2022/01/07 08:50:35;;;;;;;5.47;4.37;;;1.10;99.90;;;;;;5050249;28;20180;-75
2022/01/07 08:53:01;;;;;;;5.33;4.83;;;1.20;99.90;;;;;;5032171;28;20222;-75
2022/01/07 08:55:27;;;;;;;6.17;4.70;;;1.10;99.90;;;;;;5050246;28;20188;-75
2022/01/07 08:57:53;;;;;;;5.32;4.05;;;1.10;99.90;;;;;;5032806;28;20418;-75
2022/01/07 09:00:18;;;;;;;13.63;4.77;;;1.00;99.90;;;;;;5050561;28;20188;-73
2022/01/07 09:02:44;;;;;;;5.90;4.53;;;1.00;99.90;;;;;;5031627;28;20246;-75
2022/01/07 09:05:10;;;;;;;5.93;4.30;;;0.90;99.90;;;;;;5050233;28;20666;-75
2022/01/07 09:07:35;;;;;;;10.50;5.07;;;0.90;99.90;;;;;;5050069;28;20183;-75
2022/01/07 09:10:01;;;;;;;4.60;4.07;;;0.80;99.90;;;;;;5031856;28;20194;-75
2022/01/07 09:12:27;;;;;;;6.33;3.90;;;0.90;99.90;;;;;;5050000;28;20383;-75
2022/01/07 09:14:52;;;;;;;14.70;4.20;;;0.80;99.90;;;;;;5032093;28;20188;-75
2022/01/07 09:17:18;;;;;;;4.07;3.47;;;0.80;99.90;;;;;;5032249;28;20214;-75
2022/01/07 09:19:44;;;;;;;6.20;4.07;;;0.90;99.90;;;;;;5032766;28;20341;-75
2022/01/07 09:22:09;;;;;;;4.70;3.67;;;0.90;99.90;;;;;;5051348;28;20185;-75
2022/01/07 09:24:35;;;;;;;6.00;3.67;;;0.90;99.90;;;;;;5051081;28;20210;-75
2022/01/07 09:27:01;;;;;;;5.30;3.83;;;1.00;99.90;;;;;;5051302;28;20425;-75
2022/01/07 09:29:27;;;;;;;6.67;4.10;;;1.00;99.90;;;;;;5051129;28;20224;-75
2022/01/07 09:31:54;;;;;;;5.90;4.20;;;1.10;99.90;;;;;;5033343;28;20574;-75
2022/01/07 09:34:20;;;;;;;5.40;4.30;;;1.10;99.90;;;;;;5051014;28;20222;-75
2022/01/07 09:36:46;;;;;;;6.30;4.50;;;0.90;99.90;;;;;;5051020;28;20181;-75
2022/01/07 09:39:12;;;;;;;4.30;3.90;;;0.90;99.90;;;;;;5032469;28;20242;-75
2022/01/07 09:41:38;;;;;;;4.25;3.90;;;1.00;99.90;;;;;;5050525;28;20184;-75
2022/01/07 09:44:08;;;;;;;5.73;3.80;;;1.20;99.90;;;;;;5050711;28;20311;-75
2022/01/07 09:46:33;;;;;;;4.55;4.07;;;1.20;99.90;;;;;;5050956;28;20192;-75
2022/01/07 09:48:59;;;;;;;8.57;4.43;;;1.30;99.90;;;;;;5050703;28;20563;-75
2022/01/07 09:51:26;;;;;;;4.27;3.80;;;1.40;99.90;;;;;;5050730;28;20668;-74
2022/01/07 09:53:52;;;;;;;4.95;4.55;;;1.30;99.90;;;;;;5050571;28;20206;-75
2022/01/07 09:56:19;;;;;;;6.03;4.00;;;1.40;99.90;;;;;;5050828;28;20181;-74
2022/01/07 09:58:45;;;;;;;4.60;4.05;;;1.30;99.90;;;;;;5049712;28;20189;-75
2022/01/07 10:01:14;;;;;;;5.22;3.75;;;1.30;99.90;;;;;;5050716;28;20241;-75
2022/01/07 10:03:41;;;;;;;4.57;3.92;;;1.40;99.90;;;;;;5050528;28;20200;-74
2022/01/07 10:06:25;;;;;;;6.72;4.53;;;1.40;99.90;;;;;;5050470;28;20192;-74
2022/01/07 10:09:00;;;;;;;8.48;4.30;;;1.40;99.90;;;;;;5050441;28;20269;-74
2022/01/07 10:11:26;;;;;;;5.53;4.30;;;1.50;99.90;;;;;;5050159;28;20190;-75
2022/01/07 10:14:16;;;;;;;5.75;4.10;;;1.40;99.90;;;;;;5050093;28;20204;-75
2022/01/07 10:16:57;;;;;;;10.82;4.55;;;1.40;99.90;;;;;;5050248;28;20192;-74
2022/01/07 10:19:28;;;;;;;7.20;4.55;;;1.40;99.90;;;;;;5050073;28;20184;-74
2022/01/07 10:22:00;;;;;;;5.90;3.72;;;1.40;99.90;;;;;;5050190;28;20177;-74
2022/01/07 10:24:26;;;;;;;5.60;4.45;;;1.30;99.90;;;;;;5049834;28;20216;-74
2022/01/07 10:27:11;;;;;;;5.57;4.33;;;1.30;99.90;;;;;;5049718;28;20581;-74
2022/01/07 10:29:41;;;;;;;5.28;4.35;;;1.30;99.90;;;;;;5049849;28;20182;-73
2022/01/07 10:32:30;;;;;;;5.00;4.18;;;1.40;99.90;;;;;;5049656;28;20217;-75
2022/01/07 10:35:11;;;;;;;7.05;3.70;;;1.30;99.90;;;;;;5031615;28;20696;-74
2022/01/07 10:37:46;;;;;;;10.07;4.57;;;1.30;99.90;;;;;;5049926;28;20230;-75
2022/01/07 10:40:37;;;;;;;9.43;5.13;;;1.30;99.90;;;;;;5049693;28;20251;-75
2022/01/07 10:43:21;;;;;;;6.60;4.72;;;1.20;99.90;;;;;;5049867;28;20208;-74
2022/01/07 10:45:52;;;;;;;8.57;4.93;;;1.30;99.90;;;;;;5049615;28;20207;-74
2022/01/07 10:48:20;;;;;;;8.48;4.53;;;1.30;99.90;;;;;;5049824;28;20184;-74
2022/01/07 10:50:48;;;;;;;6.13;4.97;;;1.20;99.90;;;;;;5031286;28;20634;-74
2022/01/07 10:53:24;;;;;;;8.60;4.35;;;1.20;99.90;;;;;;5048959;28;20229;-75
2022/01/07 10:55:59;;;;;;;9.10;5.15;;;1.30;99.90;;;;;;5048959;28;20212;-73
2022/01/07 10:58:24;;;;;;;6.72;5.15;;;1.30;99.90;;;;;;5048614;28;20221;-75
2022/01/07 11:00:50;;;;;;;7.20;5.20;;;1.30;99.90;;;;;;5048788;28;20598;-75
2022/01/07 11:03:16;;;;;;;7.47;5.30;;;1.30;99.90;;;;;;5048274;28;20435;-75
2022/01/07 11:05:42;;;;;;;6.67;5.03;;;1.30;99.90;;;;;;5048457;28;20227;-74
2022/01/07 11:08:08;;;;;;;5.20;4.70;;;1.30;99.90;;;;;;5048276;28;20198;-74
2022/01/07 11:10:36;;;;;;;6.60;4.27;;;1.40;99.90;;;;;;5047662;28;20188;-74
2022/01/07 11:13:03;;;;;;;4.65;4.25;;;1.30;99.90;;;;;;5047988;28;20486;-74
2022/01/07 11:15:28;;;;;;;8.25;4.40;;;1.20;99.90;;;;;;5048110;28;20716;-73
2022/01/07 11:17:54;;;;;;;11.23;5.10;;;1.20;99.90;;;;;;5048056;28;20192;-74
2022/01/07 11:20:24;;;;;;;8.43;5.57;;;1.10;99.90;;;;;;5030017;28;20226;-74
2022/01/07 11:22:51;;;;;;;8.32;5.25;;;1.00;99.90;;;;;;5047893;28;20675;-73
2022/01/07 11:25:17;;;;;;;5.95;4.85;;;1.00;99.90;;;;;;5047970;28;20195;-74
2022/01/07 11:27:57;;;;;;;7.03;5.47;;;1.00;99.90;;;;;;5048033;28;20575;-74
2022/01/07 11:30:28;;;;;;;10.30;5.75;;;0.90;99.90;;;;;;5047556;28;20188;-74
2022/01/07 11:32:54;;;;;;;8.23;5.80;;;0.90;99.90;;;;;;5047456;28;20224;-74
2022/01/07 11:35:19;;;;;;;6.90;5.57;;;0.80;99.90;;;;;;5047527;28;20190;-74
2022/01/07 11:38:00;;;;;;;10.23;6.40;;;0.80;99.90;;;;;;5047351;28;20406;-74
2022/01/07 11:40:28;;;;;;;7.93;5.63;;;0.70;99.90;;;;;;5047545;28;20992;-75
2022/01/07 11:43:04;;;;;;;6.70;4.22;;;0.60;99.90;;;;;;5047382;28;20196;-74
2022/01/07 11:45:31;;;;;;;9.00;5.82;;;0.50;99.90;;;;;;5047320;28;20180;-75
2022/01/07 11:48:20;;;;;;;5.50;4.70;;;0.50;99.90;;;;;;5047266;28;20211;-74
2022/01/07 11:50:55;;;;;;;7.63;6.15;;;0.50;99.90;;;;;;5047148;28;20715;-74
2022/01/07 11:53:22;;;;;;;9.48;5.93;;;0.50;99.90;;;;;;5047266;28;20698;-74
2022/01/07 11:55:49;;;;;;;8.48;6.20;;;0.50;99.90;;;;;;5047590;28;20214;-75
2022/01/07 11:58:16;;;;;;;9.30;6.07;;;0.60;99.90;;;;;;5047331;28;20177;-75
2022/01/07 12:00:52;;;;;;;8.68;5.43;;;0.60;99.90;;;;;;5029207;28;20193;-74
2022/01/07 12:03:37;;;;;;;10.23;5.65;;;0.60;99.90;;;;;;5047101;28;20290;-74
2022/01/07 12:06:21;;;;;;;8.32;6.22;;;0.60;99.90;;;;;;5047238;28;20226;-74
2022/01/07 12:08:59;;;;;;;10.35;6.07;;;0.60;99.90;;;;;;5047492;28;20176;-75
2022/01/07 12:11:27;;;;;;;10.95;5.90;;;0.60;99.90;;;;;;5047375;28;20176;-75
2022/01/07 12:13:52;;;;;;;7.45;6.20;;;0.60;99.90;;;;;;5047360;28;20239;-74
2022/01/07 12:16:19;;;;;;;8.30;5.60;;;0.90;99.90;;;;;;5029434;28;20221;-74
2022/01/07 12:18:45;;;;;;;12.93;5.93;;;0.90;99.90;;;;;;5047527;28;20423;-74
2022/01/07 12:21:11;;;;;;;10.13;6.27;;;1.10;99.90;;;;;;5047540;28;20184;-74
2022/01/07 12:23:39;;;;;;;8.07;5.33;;;1.10;99.90;;;;;;5050288;28;20642;-74
2022/01/07 12:26:05;;;;;;;8.10;4.90;;;1.10;99.90;;;;;;5051524;28;20423;-75
2022/01/07 12:28:46;;;;;;;9.25;5.80;;;1.10;99.90;;;;;;5033303;28;20195;-74
2022/01/07 12:31:12;;;;;;;5.50;5.00;;;1.20;99.90;;;;;;5034061;28;20187;-75
2022/01/07 12:33:58;;;;;;;6.78;5.53;;;1.20;99.90;;;;;;5051018;28;20728;-75
2022/01/07 12:36:27;;;;;;;12.15;5.88;;;1.30;99.90;;;;;;5051414;28;20188;-74
2022/01/07 12:39:03;;;;;;;9.13;6.25;;;1.30;99.90;;;;;;5051346;28;20176;-74
2022/01/07 12:41:30;;;;;;;9.70;5.72;;;1.40;99.90;;;;;;5051604;28;20195;-74
2022/01/07 12:44:10;;;;;;;7.43;5.05;;;1.40;99.90;;;;;;5051376;28;20207;-74
2022/01/07 12:46:37;;;;;;;10.13;5.07;;;1.40;99.90;;;;;;5051578;28;20192;-74
2022/01/07 12:49:04;;;;;;;8.13;6.25;;;1.40;99.90;;;;;;5051782;28;20242;-74
2022/01/07 12:51:30;;;;;;;15.02;8.85;;;1.60;99.90;;;;;;5051233;28;20227;-74
2022/01/07 12:54:08;;;;;;;9.07;5.90;;;1.60;99.90;;;;;;5051151;28;20228;-74
2022/01/07 12:56:36;;;;;;;6.28;5.40;;;1.60;99.90;;;;;;5033001;28;20462;-74
2022/01/07 12:59:31;;;;;;;6.55;4.78;;;1.60;99.90;;;;;;5051117;28;20255;-74
2022/01/07 13:01:57;;;;;;;7.22;4.93;;;1.70;99.90;;;;;;5029699;28;20206;-74
2022/01/07 13:04:25;;;;;;;7.57;4.83;;;1.60;99.90;;;;;;5033120;28;20769;-74
2022/01/07 13:06:55;;;;;;;5.63;4.43;;;1.60;99.90;;;;;;5050941;28;20665;-74